sensor_id;sensor_type;location;lat;lon;timestamp;P1;durP1;ratioP1;P2;durP2;ratioP2
54575;SDS011;40472;53.486;14.542;2023-05-07T00:01:59;2.03;;;0.90;;
54575;SDS011;40472;53.486;14.542;2023-05-07T00:04:26;6.50;;;2.38;;
54575;SDS011;40472;53.486;14.542;2023-05-07T00:06:53;3.85;;;1.92;;
54575;SDS011;40472;53.486;14.542;2023-05-07T00:09:19;3.15;;;1.98;;
54575;SDS011;40472;53.486;14.542;2023-05-07T00:11:44;4.18;;;1.38;;
54575;SDS011;40472;53.486;14.542;2023-05-07T00:14:10;5.07;;;1.85;;
54575;SDS011;40472;53.486;14.542;2023-05-07T00:16:36;5.60;;;2.38;;
54575;SDS011;40472;53.486;14.542;2023-05-07T00:19:01;4.25;;;1.98;;
54575;SDS011;40472;53.486;14.542;2023-05-07T00:21:27;2.83;;;2.22;;
54575;SDS011;40472;53.486;14.542;2023-05-07T00:23:53;1.48;;;0.90;;
54575;SDS011;40472;53.486;14.542;2023-05-07T00:26:19;2.97;;;1.70;;
54575;SDS011;40472;53.486;14.542;2023-05-07T00:28:45;3.38;;;2.40;;
54575;SDS011;40472;53.486;14.542;2023-05-07T00:31:11;5.28;;;2.63;;
54575;SDS011;40472;53.486;14.542;2023-05-07T00:33:37;4.22;;;1.42;;
54575;SDS011;40472;53.486;14.542;2023-05-07T00:36:04;10.07;;;1.70;;
54575;SDS011;40472;53.486;14.542;2023-05-07T00:38:30;3.97;;;1.65;;
54575;SDS011;40472;53.486;14.542;2023-05-07T00:40:56;19.67;;;1.65;;
54575;SDS011;40472;53.486;14.542;2023-05-07T00:43:22;4.00;;;1.58;;
54575;SDS011;40472;53.486;14.542;2023-05-07T00:45:48;3.88;;;1.65;;
54575;SDS011;40472;53.486;14.542;2023-05-07T00:48:13;7.22;;;2.28;;
54575;SDS011;40472;53.486;14.542;2023-05-07T00:50:40;7.03;;;2.47;;
54575;SDS011;40472;53.486;14.542;2023-05-07T00:53:07;8.15;;;2.92;;
54575;SDS011;40472;53.486;14.542;2023-05-07T00:55:33;6.20;;;3.15;;
54575;SDS011;40472;53.486;14.542;2023-05-07T00:58:00;4.18;;;3.03;;
54575;SDS011;40472;53.486;14.542;2023-05-07T01:00:26;13.43;;;3.83;;
54575;SDS011;40472;53.486;14.542;2023-05-07T01:02:53;8.80;;;3.83;;
54575;SDS011;40472;53.486;14.542;2023-05-07T01:05:19;16.90;;;4.55;;
54575;SDS011;40472;53.486;14.542;2023-05-07T01:07:48;6.97;;;4.78;;
54575;SDS011;40472;53.486;14.542;2023-05-07T01:10:15;2.80;;;2.05;;
54575;SDS011;40472;53.486;14.542;2023-05-07T01:12:42;2.90;;;1.67;;
54575;SDS011;40472;53.486;14.542;2023-05-07T01:15:09;4.40;;;2.58;;
54575;SDS011;40472;53.486;14.542;2023-05-07T01:17:37;4.72;;;2.55;;
54575;SDS011;40472;53.486;14.542;2023-05-07T01:20:08;3.60;;;1.58;;
54575;SDS011;40472;53.486;14.542;2023-05-07T01:22:39;4.03;;;2.22;;
54575;SDS011;40472;53.486;14.542;2023-05-07T01:25:05;3.00;;;1.65;;
54575;SDS011;40472;53.486;14.542;2023-05-07T01:27:33;3.50;;;1.63;;
54575;SDS011;40472;53.486;14.542;2023-05-07T01:30:00;3.47;;;1.60;;
54575;SDS011;40472;53.486;14.542;2023-05-07T01:32:28;1.13;;;0.70;;
54575;SDS011;40472;53.486;14.542;2023-05-07T01:35:01;1.55;;;0.90;;
54575;SDS011;40472;53.486;14.542;2023-05-07T01:37:29;2.97;;;1.63;;
54575;SDS011;40472;53.486;14.542;2023-05-07T01:39:54;2.90;;;2.40;;
54575;SDS011;40472;53.486;14.542;2023-05-07T01:42:21;5.35;;;1.30;;
54575;SDS011;40472;53.486;14.542;2023-05-07T01:44:47;4.57;;;1.95;;
54575;SDS011;40472;53.486;14.542;2023-05-07T01:47:13;2.80;;;1.85;;
54575;SDS011;40472;53.486;14.542;2023-05-07T01:49:39;2.03;;;1.38;;
54575;SDS011;40472;53.486;14.542;2023-05-07T01:52:06;3.70;;;1.75;;
54575;SDS011;40472;53.486;14.542;2023-05-07T01:54:37;2.90;;;1.77;;
54575;SDS011;40472;53.486;14.542;2023-05-07T01:57:03;5.00;;;1.73;;
54575;SDS011;40472;53.486;14.542;2023-05-07T01:59:29;4.30;;;1.52;;
54575;SDS011;40472;53.486;14.542;2023-05-07T02:01:55;3.53;;;1.30;;
54575;SDS011;40472;53.486;14.542;2023-05-07T02:04:21;3.47;;;1.95;;
54575;SDS011;40472;53.486;14.542;2023-05-07T02:06:47;4.22;;;2.22;;
54575;SDS011;40472;53.486;14.542;2023-05-07T02:09:13;2.72;;;1.65;;
54575;SDS011;40472;53.486;14.542;2023-05-07T02:11:40;6.15;;;2.58;;
54575;SDS011;40472;53.486;14.542;2023-05-07T02:14:05;3.05;;;1.95;;
54575;SDS011;40472;53.486;14.542;2023-05-07T02:16:31;2.65;;;1.48;;
54575;SDS011;40472;53.486;14.542;2023-05-07T02:18:59;1.50;;;1.35;;
54575;SDS011;40472;53.486;14.542;2023-05-07T02:21:25;1.85;;;1.33;;
54575;SDS011;40472;53.486;14.542;2023-05-07T02:23:51;2.55;;;1.77;;
54575;SDS011;40472;53.486;14.542;2023-05-07T02:26:18;2.35;;;2.13;;
54575;SDS011;40472;53.486;14.542;2023-05-07T02:28:44;3.35;;;2.28;;
54575;SDS011;40472;53.486;14.542;2023-05-07T02:31:09;6.53;;;2.50;;
54575;SDS011;40472;53.486;14.542;2023-05-07T02:33:35;3.67;;;2.15;;
54575;SDS011;40472;53.486;14.542;2023-05-07T02:36:05;2.53;;;1.63;;
54575;SDS011;40472;53.486;14.542;2023-05-07T02:38:32;3.63;;;1.63;;
54575;SDS011;40472;53.486;14.542;2023-05-07T02:40:57;4.72;;;2.60;;
54575;SDS011;40472;53.486;14.542;2023-05-07T02:43:23;7.20;;;2.85;;
54575;SDS011;40472;53.486;14.542;2023-05-07T02:45:49;2.75;;;1.45;;
54575;SDS011;40472;53.486;14.542;2023-05-07T02:48:25;3.25;;;2.72;;
54575;SDS011;40472;53.486;14.542;2023-05-07T02:50:57;9.52;;;4.30;;
54575;SDS011;40472;53.486;14.542;2023-05-07T02:53:23;16.65;;;5.25;;
54575;SDS011;40472;53.486;14.542;2023-05-07T02:55:51;10.52;;;4.78;;
54575;SDS011;40472;53.486;14.542;2023-05-07T02:58:21;7.90;;;3.45;;
54575;SDS011;40472;53.486;14.542;2023-05-07T03:00:47;9.77;;;5.22;;
54575;SDS011;40472;53.486;14.542;2023-05-07T03:03:13;8.75;;;5.32;;
54575;SDS011;40472;53.486;14.542;2023-05-07T03:05:39;15.40;;;4.68;;
54575;SDS011;40472;53.486;14.542;2023-05-07T03:08:04;13.15;;;6.35;;
54575;SDS011;40472;53.486;14.542;2023-05-07T03:10:30;11.02;;;4.38;;
54575;SDS011;40472;53.486;14.542;2023-05-07T03:12:56;11.68;;;4.95;;
54575;SDS011;40472;53.486;14.542;2023-05-07T03:15:21;12.27;;;5.40;;
54575;SDS011;40472;53.486;14.542;2023-05-07T03:17:47;8.18;;;4.22;;
54575;SDS011;40472;53.486;14.542;2023-05-07T03:20:13;10.35;;;4.40;;
54575;SDS011;40472;53.486;14.542;2023-05-07T03:22:39;9.00;;;4.50;;
54575;SDS011;40472;53.486;14.542;2023-05-07T03:25:06;7.10;;;4.30;;
54575;SDS011;40472;53.486;14.542;2023-05-07T03:27:32;6.28;;;2.10;;
54575;SDS011;40472;53.486;14.542;2023-05-07T03:29:58;6.78;;;3.72;;
54575;SDS011;40472;53.486;14.542;2023-05-07T03:32:24;4.03;;;2.55;;
54575;SDS011;40472;53.486;14.542;2023-05-07T03:34:50;3.67;;;2.13;;
54575;SDS011;40472;53.486;14.542;2023-05-07T03:37:15;7.38;;;2.65;;
54575;SDS011;40472;53.486;14.542;2023-05-07T03:39:41;4.32;;;2.30;;
54575;SDS011;40472;53.486;14.542;2023-05-07T03:42:07;2.60;;;2.33;;
54575;SDS011;40472;53.486;14.542;2023-05-07T03:44:32;2.38;;;1.50;;
54575;SDS011;40472;53.486;14.542;2023-05-07T03:46:58;4.68;;;2.13;;
54575;SDS011;40472;53.486;14.542;2023-05-07T03:49:24;4.13;;;2.28;;
54575;SDS011;40472;53.486;14.542;2023-05-07T03:51:50;1.92;;;1.55;;
54575;SDS011;40472;53.486;14.542;2023-05-07T03:54:15;1.75;;;1.25;;
54575;SDS011;40472;53.486;14.542;2023-05-07T03:56:41;3.22;;;1.50;;
54575;SDS011;40472;53.486;14.542;2023-05-07T03:59:07;4.88;;;1.63;;
54575;SDS011;40472;53.486;14.542;2023-05-07T04:01:35;3.75;;;1.98;;
54575;SDS011;40472;53.486;14.542;2023-05-07T04:04:01;2.28;;;1.85;;
54575;SDS011;40472;53.486;14.542;2023-05-07T04:06:28;12.77;;;3.92;;
54575;SDS011;40472;53.486;14.542;2023-05-07T04:08:53;4.80;;;2.75;;
54575;SDS011;40472;53.486;14.542;2023-05-07T04:11:19;6.72;;;3.10;;
54575;SDS011;40472;53.486;14.542;2023-05-07T04:13:45;5.38;;;2.42;;
54575;SDS011;40472;53.486;14.542;2023-05-07T04:16:11;3.63;;;2.03;;
54575;SDS011;40472;53.486;14.542;2023-05-07T04:18:37;4.45;;;2.30;;
54575;SDS011;40472;53.486;14.542;2023-05-07T04:21:02;8.60;;;1.98;;
54575;SDS011;40472;53.486;14.542;2023-05-07T04:23:28;11.00;;;1.45;;
54575;SDS011;40472;53.486;14.542;2023-05-07T04:25:54;1.63;;;1.50;;
54575;SDS011;40472;53.486;14.542;2023-05-07T04:28:20;2.47;;;1.30;;
54575;SDS011;40472;53.486;14.542;2023-05-07T04:30:46;2.50;;;1.67;;
54575;SDS011;40472;53.486;14.542;2023-05-07T04:33:11;2.08;;;1.55;;
54575;SDS011;40472;53.486;14.542;2023-05-07T04:35:41;1.35;;;1.00;;
54575;SDS011;40472;53.486;14.542;2023-05-07T04:38:07;3.67;;;1.92;;
54575;SDS011;40472;53.486;14.542;2023-05-07T04:40:35;2.55;;;1.05;;
54575;SDS011;40472;53.486;14.542;2023-05-07T04:43:01;1.67;;;1.35;;
54575;SDS011;40472;53.486;14.542;2023-05-07T04:45:27;2.40;;;1.48;;
54575;SDS011;40472;53.486;14.542;2023-05-07T04:47:53;1.83;;;1.50;;
54575;SDS011;40472;53.486;14.542;2023-05-07T04:50:18;1.23;;;0.90;;
54575;SDS011;40472;53.486;14.542;2023-05-07T04:52:44;6.18;;;2.15;;
54575;SDS011;40472;53.486;14.542;2023-05-07T04:55:11;2.70;;;1.65;;
54575;SDS011;40472;53.486;14.542;2023-05-07T04:57:37;3.83;;;1.75;;
54575;SDS011;40472;53.486;14.542;2023-05-07T05:00:04;4.75;;;2.38;;
54575;SDS011;40472;53.486;14.542;2023-05-07T05:02:33;2.78;;;0.88;;
54575;SDS011;40472;53.486;14.542;2023-05-07T05:05:01;5.40;;;1.52;;
54575;SDS011;40472;53.486;14.542;2023-05-07T05:07:28;2.53;;;1.35;;
54575;SDS011;40472;53.486;14.542;2023-05-07T05:09:54;0.73;;;0.73;;
54575;SDS011;40472;53.486;14.542;2023-05-07T05:12:20;2.42;;;1.20;;
54575;SDS011;40472;53.486;14.542;2023-05-07T05:14:46;2.90;;;1.30;;
54575;SDS011;40472;53.486;14.542;2023-05-07T05:17:12;0.75;;;0.70;;
54575;SDS011;40472;53.486;14.542;2023-05-07T05:19:38;2.30;;;0.93;;
54575;SDS011;40472;53.486;14.542;2023-05-07T05:22:03;1.75;;;1.20;;
54575;SDS011;40472;53.486;14.542;2023-05-07T05:24:30;2.53;;;1.20;;
54575;SDS011;40472;53.486;14.542;2023-05-07T05:26:56;1.60;;;1.23;;
54575;SDS011;40472;53.486;14.542;2023-05-07T05:29:22;1.17;;;0.77;;
54575;SDS011;40472;53.486;14.542;2023-05-07T05:31:47;3.70;;;1.33;;
54575;SDS011;40472;53.486;14.542;2023-05-07T05:34:13;2.78;;;0.80;;
54575;SDS011;40472;53.486;14.542;2023-05-07T05:36:39;2.55;;;1.00;;
54575;SDS011;40472;53.486;14.542;2023-05-07T05:39:05;2.40;;;1.40;;
54575;SDS011;40472;53.486;14.542;2023-05-07T05:41:31;1.17;;;1.02;;
54575;SDS011;40472;53.486;14.542;2023-05-07T05:43:57;2.75;;;1.45;;
54575;SDS011;40472;53.486;14.542;2023-05-07T05:46:22;1.83;;;1.45;;
54575;SDS011;40472;53.486;14.542;2023-05-07T05:48:48;1.65;;;1.23;;
54575;SDS011;40472;53.486;14.542;2023-05-07T05:51:14;5.18;;;1.63;;
54575;SDS011;40472;53.486;14.542;2023-05-07T05:53:40;2.42;;;1.40;;
54575;SDS011;40472;53.486;14.542;2023-05-07T05:56:06;1.20;;;0.82;;
54575;SDS011;40472;53.486;14.542;2023-05-07T05:58:32;3.33;;;1.45;;
54575;SDS011;40472;53.486;14.542;2023-05-07T06:00:58;1.10;;;0.90;;
54575;SDS011;40472;53.486;14.542;2023-05-07T06:03:23;1.33;;;0.77;;
54575;SDS011;40472;53.486;14.542;2023-05-07T06:05:49;1.23;;;0.95;;
54575;SDS011;40472;53.486;14.542;2023-05-07T06:08:15;6.90;;;1.65;;
54575;SDS011;40472;53.486;14.542;2023-05-07T06:10:41;3.53;;;1.45;;
54575;SDS011;40472;53.486;14.542;2023-05-07T06:13:07;2.03;;;1.63;;
54575;SDS011;40472;53.486;14.542;2023-05-07T06:15:32;1.48;;;0.88;;
54575;SDS011;40472;53.486;14.542;2023-05-07T06:17:58;3.03;;;0.73;;
54575;SDS011;40472;53.486;14.542;2023-05-07T06:20:24;2.72;;;1.13;;
54575;SDS011;40472;53.486;14.542;2023-05-07T06:22:50;0.55;;;0.50;;
54575;SDS011;40472;53.486;14.542;2023-05-07T06:25:15;0.75;;;0.60;;
54575;SDS011;40472;53.486;14.542;2023-05-07T06:27:41;6.90;;;1.70;;
54575;SDS011;40472;53.486;14.542;2023-05-07T06:30:07;4.20;;;1.90;;
54575;SDS011;40472;53.486;14.542;2023-05-07T06:32:33;1.35;;;0.88;;
54575;SDS011;40472;53.486;14.542;2023-05-07T06:34:59;1.48;;;0.98;;
54575;SDS011;40472;53.486;14.542;2023-05-07T06:37:25;1.70;;;1.25;;
54575;SDS011;40472;53.486;14.542;2023-05-07T06:39:51;0.70;;;0.40;;
54575;SDS011;40472;53.486;14.542;2023-05-07T06:42:17;3.20;;;1.10;;
54575;SDS011;40472;53.486;14.542;2023-05-07T06:44:42;3.13;;;1.38;;
54575;SDS011;40472;53.486;14.542;2023-05-07T06:47:08;5.22;;;0.90;;
54575;SDS011;40472;53.486;14.542;2023-05-07T06:49:34;2.45;;;0.95;;
54575;SDS011;40472;53.486;14.542;2023-05-07T06:52:00;2.17;;;1.38;;
54575;SDS011;40472;53.486;14.542;2023-05-07T06:54:26;1.40;;;1.08;;
54575;SDS011;40472;53.486;14.542;2023-05-07T06:56:52;0.82;;;0.63;;
54575;SDS011;40472;53.486;14.542;2023-05-07T06:59:18;2.63;;;1.00;;
54575;SDS011;40472;53.486;14.542;2023-05-07T07:01:46;0.85;;;0.65;;
54575;SDS011;40472;53.486;14.542;2023-05-07T07:04:11;1.63;;;1.05;;
54575;SDS011;40472;53.486;14.542;2023-05-07T07:06:37;1.23;;;0.63;;
54575;SDS011;40472;53.486;14.542;2023-05-07T07:09:03;1.05;;;0.95;;
54575;SDS011;40472;53.486;14.542;2023-05-07T07:11:29;1.55;;;0.80;;
54575;SDS011;40472;53.486;14.542;2023-05-07T07:13:55;1.88;;;1.10;;
54575;SDS011;40472;53.486;14.542;2023-05-07T07:16:21;2.28;;;1.48;;
54575;SDS011;40472;53.486;14.542;2023-05-07T07:18:47;3.80;;;0.98;;
54575;SDS011;40472;53.486;14.542;2023-05-07T07:21:13;2.92;;;1.45;;
54575;SDS011;40472;53.486;14.542;2023-05-07T07:23:39;0.77;;;0.60;;
54575;SDS011;40472;53.486;14.542;2023-05-07T07:26:05;0.45;;;0.45;;
54575;SDS011;40472;53.486;14.542;2023-05-07T07:28:31;1.10;;;0.28;;
54575;SDS011;40472;53.486;14.542;2023-05-07T07:30:57;3.33;;;1.17;;
54575;SDS011;40472;53.486;14.542;2023-05-07T07:33:23;1.10;;;0.73;;
54575;SDS011;40472;53.486;14.542;2023-05-07T07:35:49;1.15;;;1.02;;
54575;SDS011;40472;53.486;14.542;2023-05-07T07:38:17;0.90;;;0.63;;
54575;SDS011;40472;53.486;14.542;2023-05-07T07:40:47;3.55;;;1.13;;
54575;SDS011;40472;53.486;14.542;2023-05-07T07:43:12;2.28;;;1.27;;
54575;SDS011;40472;53.486;14.542;2023-05-07T07:45:38;3.00;;;1.60;;
54575;SDS011;40472;53.486;14.542;2023-05-07T07:48:05;0.98;;;0.75;;
54575;SDS011;40472;53.486;14.542;2023-05-07T07:50:31;4.07;;;1.25;;
54575;SDS011;40472;53.486;14.542;2023-05-07T07:52:56;5.35;;;1.55;;
54575;SDS011;40472;53.486;14.542;2023-05-07T07:55:22;0.68;;;0.68;;
54575;SDS011;40472;53.486;14.542;2023-05-07T07:57:49;2.35;;;0.80;;
54575;SDS011;40472;53.486;14.542;2023-05-07T08:00:15;0.60;;;0.30;;
54575;SDS011;40472;53.486;14.542;2023-05-07T08:02:41;1.00;;;0.70;;
54575;SDS011;40472;53.486;14.542;2023-05-07T08:05:07;1.10;;;0.50;;
54575;SDS011;40472;53.486;14.542;2023-05-07T08:07:33;1.17;;;0.75;;
54575;SDS011;40472;53.486;14.542;2023-05-07T08:09:59;1.38;;;0.70;;
54575;SDS011;40472;53.486;14.542;2023-05-07T08:12:25;1.40;;;0.73;;
54575;SDS011;40472;53.486;14.542;2023-05-07T08:14:53;1.33;;;0.80;;
54575;SDS011;40472;53.486;14.542;2023-05-07T08:17:19;1.08;;;0.70;;
54575;SDS011;40472;53.486;14.542;2023-05-07T08:19:47;1.45;;;0.95;;
54575;SDS011;40472;53.486;14.542;2023-05-07T08:22:13;1.13;;;0.70;;
54575;SDS011;40472;53.486;14.542;2023-05-07T08:24:39;1.58;;;1.25;;
54575;SDS011;40472;53.486;14.542;2023-05-07T08:27:05;1.67;;;1.00;;
54575;SDS011;40472;53.486;14.542;2023-05-07T08:29:31;1.23;;;0.90;;
54575;SDS011;40472;53.486;14.542;2023-05-07T08:31:57;2.78;;;0.90;;
54575;SDS011;40472;53.486;14.542;2023-05-07T08:34:22;1.08;;;0.75;;
54575;SDS011;40472;53.486;14.542;2023-05-07T08:36:48;1.48;;;1.15;;
54575;SDS011;40472;53.486;14.542;2023-05-07T08:39:17;3.67;;;1.60;;
54575;SDS011;40472;53.486;14.542;2023-05-07T08:41:44;0.65;;;0.55;;
54575;SDS011;40472;53.486;14.542;2023-05-07T08:44:12;0.55;;;0.30;;
54575;SDS011;40472;53.486;14.542;2023-05-07T08:46:42;1.88;;;1.27;;
54575;SDS011;40472;53.486;14.542;2023-05-07T08:49:13;1.70;;;1.00;;
54575;SDS011;40472;53.486;14.542;2023-05-07T08:51:40;1.23;;;0.80;;
54575;SDS011;40472;53.486;14.542;2023-05-07T08:54:07;1.30;;;0.68;;
54575;SDS011;40472;53.486;14.542;2023-05-07T08:56:34;2.60;;;1.27;;
54575;SDS011;40472;53.486;14.542;2023-05-07T08:58:59;1.80;;;0.73;;
54575;SDS011;40472;53.486;14.542;2023-05-07T09:01:25;1.58;;;1.08;;
54575;SDS011;40472;53.486;14.542;2023-05-07T09:03:51;1.23;;;0.90;;
54575;SDS011;40472;53.486;14.542;2023-05-07T09:06:18;1.33;;;0.80;;
54575;SDS011;40472;53.486;14.542;2023-05-07T09:08:48;0.60;;;0.57;;
54575;SDS011;40472;53.486;14.542;2023-05-07T09:11:21;0.90;;;0.60;;
54575;SDS011;40472;53.486;14.542;2023-05-07T09:13:48;2.05;;;1.33;;
54575;SDS011;40472;53.486;14.542;2023-05-07T09:16:17;1.30;;;0.75;;
54575;SDS011;40472;53.486;14.542;2023-05-07T09:18:45;2.70;;;0.77;;
54575;SDS011;40472;53.486;14.542;2023-05-07T09:21:17;4.38;;;0.90;;
54575;SDS011;40472;53.486;14.542;2023-05-07T09:23:43;0.50;;;0.50;;
54575;SDS011;40472;53.486;14.542;2023-05-07T09:26:10;1.05;;;0.32;;
54575;SDS011;40472;53.486;14.542;2023-05-07T09:28:43;1.05;;;0.63;;
54575;SDS011;40472;53.486;14.542;2023-05-07T09:31:15;1.38;;;0.50;;
54575;SDS011;40472;53.486;14.542;2023-05-07T09:33:41;1.40;;;1.23;;
54575;SDS011;40472;53.486;14.542;2023-05-07T09:36:08;1.73;;;1.27;;
54575;SDS011;40472;53.486;14.542;2023-05-07T09:38:35;0.20;;;0.20;;
54575;SDS011;40472;53.486;14.542;2023-05-07T09:41:06;2.47;;;0.82;;
54575;SDS011;40472;53.486;14.542;2023-05-07T09:46:09;0.20;;;0.20;;
54575;SDS011;40472;53.486;14.542;2023-05-07T09:48:38;1.88;;;0.85;;
54575;SDS011;40472;53.486;14.542;2023-05-07T09:51:11;2.15;;;0.73;;
54575;SDS011;40472;53.486;14.542;2023-05-07T09:53:41;1.38;;;0.80;;
54575;SDS011;40472;53.486;14.542;2023-05-07T09:56:08;1.40;;;0.80;;
54575;SDS011;40472;53.486;14.542;2023-05-07T09:58:36;2.10;;;1.23;;
54575;SDS011;40472;53.486;14.542;2023-05-07T10:01:04;0.30;;;0.30;;
54575;SDS011;40472;53.486;14.542;2023-05-07T10:03:31;0.55;;;0.52;;
54575;SDS011;40472;53.486;14.542;2023-05-07T10:06:00;0.65;;;0.40;;
54575;SDS011;40472;53.486;14.542;2023-05-07T10:08:26;2.17;;;1.33;;
54575;SDS011;40472;53.486;14.542;2023-05-07T10:10:52;0.98;;;0.73;;
54575;SDS011;40472;53.486;14.542;2023-05-07T10:13:18;1.23;;;1.00;;
54575;SDS011;40472;53.486;14.542;2023-05-07T10:15:45;0.80;;;0.60;;
54575;SDS011;40472;53.486;14.542;2023-05-07T10:18:12;0.70;;;0.40;;
54575;SDS011;40472;53.486;14.542;2023-05-07T10:20:39;2.95;;;1.10;;
54575;SDS011;40472;53.486;14.542;2023-05-07T10:23:05;1.35;;;0.88;;
54575;SDS011;40472;53.486;14.542;2023-05-07T10:25:34;1.77;;;0.45;;
54575;SDS011;40472;53.486;14.542;2023-05-07T10:28:07;1.30;;;0.75;;
54575;SDS011;40472;53.486;14.542;2023-05-07T10:33:22;2.72;;;1.35;;
54575;SDS011;40472;53.486;14.542;2023-05-07T10:35:51;2.33;;;0.68;;
54575;SDS011;40472;53.486;14.542;2023-05-07T10:38:23;1.95;;;0.70;;
54575;SDS011;40472;53.486;14.542;2023-05-07T10:40:53;1.45;;;1.02;;
54575;SDS011;40472;53.486;14.542;2023-05-07T10:43:19;2.50;;;1.00;;
54575;SDS011;40472;53.486;14.542;2023-05-07T10:49:10;1.55;;;0.90;;
54575;SDS011;40472;53.486;14.542;2023-05-07T10:51:31;1.70;;;0.75;;
54575;SDS011;40472;53.486;14.542;2023-05-07T10:56:36;3.03;;;1.20;;
54575;SDS011;40472;53.486;14.542;2023-05-07T10:59:38;1.75;;;1.08;;
54575;SDS011;40472;53.486;14.542;2023-05-07T11:02:00;0.32;;;0.10;;
54575;SDS011;40472;53.486;14.542;2023-05-07T11:04:31;2.08;;;0.80;;
54575;SDS011;40472;53.486;14.542;2023-05-07T11:15:05;3.70;;;0.70;;
54575;SDS011;40472;53.486;14.542;2023-05-07T11:17:32;1.95;;;0.73;;
54575;SDS011;40472;53.486;14.542;2023-05-07T11:20:00;1.85;;;0.85;;
54575;SDS011;40472;53.486;14.542;2023-05-07T11:24:59;1.10;;;0.90;;
54575;SDS011;40472;53.486;14.542;2023-05-07T11:27:27;1.33;;;0.70;;
54575;SDS011;40472;53.486;14.542;2023-05-07T11:29:53;0.63;;;0.57;;
54575;SDS011;40472;53.486;14.542;2023-05-07T11:32:23;0.65;;;0.57;;
54575;SDS011;40472;53.486;14.542;2023-05-07T11:34:58;1.98;;;0.70;;
54575;SDS011;40472;53.486;14.542;2023-05-07T11:37:25;2.67;;;1.30;;
54575;SDS011;40472;53.486;14.542;2023-05-07T11:40:05;1.70;;;0.65;;
54575;SDS011;40472;53.486;14.542;2023-05-07T11:42:39;1.15;;;0.50;;
54575;SDS011;40472;53.486;14.542;2023-05-07T11:45:08;1.65;;;0.77;;
54575;SDS011;40472;53.486;14.542;2023-05-07T11:47:34;1.17;;;0.60;;
54575;SDS011;40472;53.486;14.542;2023-05-07T11:50:06;1.02;;;0.70;;
54575;SDS011;40472;53.486;14.542;2023-05-07T11:52:33;1.17;;;0.65;;
54575;SDS011;40472;53.486;14.542;2023-05-07T11:55:00;5.47;;;1.20;;
54575;SDS011;40472;53.486;14.542;2023-05-07T11:57:28;0.38;;;0.35;;
54575;SDS011;40472;53.486;14.542;2023-05-07T11:59:58;0.98;;;0.70;;
54575;SDS011;40472;53.486;14.542;2023-05-07T12:02:28;1.20;;;0.82;;
54575;SDS011;40472;53.486;14.542;2023-05-07T12:04:56;2.45;;;0.73;;
54575;SDS011;40472;53.486;14.542;2023-05-07T12:07:23;1.08;;;0.55;;
54575;SDS011;40472;53.486;14.542;2023-05-07T12:09:49;1.67;;;0.90;;
54575;SDS011;40472;53.486;14.542;2023-05-07T12:12:16;0.77;;;0.50;;
54575;SDS011;40472;53.486;14.542;2023-05-07T12:14:43;0.63;;;0.50;;
54575;SDS011;40472;53.486;14.542;2023-05-07T12:17:11;1.27;;;0.68;;
54575;SDS011;40472;53.486;14.542;2023-05-07T12:19:39;0.82;;;0.57;;
54575;SDS011;40472;53.486;14.542;2023-05-07T12:22:07;2.95;;;0.70;;
54575;SDS011;40472;53.486;14.542;2023-05-07T12:24:47;0.75;;;0.57;;
54575;SDS011;40472;53.486;14.542;2023-05-07T12:27:15;1.25;;;0.70;;
54575;SDS011;40472;53.486;14.542;2023-05-07T12:29:49;3.50;;;0.57;;
54575;SDS011;40472;53.486;14.542;2023-05-07T12:32:24;1.25;;;0.85;;
54575;SDS011;40472;53.486;14.542;2023-05-07T12:34:50;0.85;;;0.47;;
54575;SDS011;40472;53.486;14.542;2023-05-07T12:37:25;0.85;;;0.47;;
54575;SDS011;40472;53.486;14.542;2023-05-07T12:40:04;0.80;;;0.50;;
54575;SDS011;40472;53.486;14.542;2023-05-07T12:42:38;0.40;;;0.40;;
54575;SDS011;40472;53.486;14.542;2023-05-07T12:45:11;1.63;;;0.70;;
54575;SDS011;40472;53.486;14.542;2023-05-07T12:47:37;0.47;;;0.40;;
54575;SDS011;40472;53.486;14.542;2023-05-07T12:50:06;2.33;;;0.80;;
54575;SDS011;40472;53.486;14.542;2023-05-07T12:52:32;0.95;;;0.63;;
54575;SDS011;40472;53.486;14.542;2023-05-07T12:55:04;1.20;;;0.50;;
54575;SDS011;40472;53.486;14.542;2023-05-07T12:57:31;0.75;;;0.65;;
54575;SDS011;40472;53.486;14.542;2023-05-07T13:00:07;4.25;;;0.95;;
54575;SDS011;40472;53.486;14.542;2023-05-07T13:02:34;1.38;;;0.90;;
54575;SDS011;40472;53.486;14.542;2023-05-07T13:05:02;1.02;;;0.65;;
54575;SDS011;40472;53.486;14.542;2023-05-07T13:07:28;1.65;;;0.90;;
54575;SDS011;40472;53.486;14.542;2023-05-07T13:09:54;0.88;;;0.47;;
54575;SDS011;40472;53.486;14.542;2023-05-07T13:12:20;1.75;;;0.70;;
54575;SDS011;40472;53.486;14.542;2023-05-07T13:14:47;0.55;;;0.50;;
54575;SDS011;40472;53.486;14.542;2023-05-07T13:17:12;4.75;;;0.50;;
54575;SDS011;40472;53.486;14.542;2023-05-07T13:19:40;0.70;;;0.45;;
54575;SDS011;40472;53.486;14.542;2023-05-07T13:22:06;0.52;;;0.32;;
54575;SDS011;40472;53.486;14.542;2023-05-07T13:24:32;2.03;;;0.80;;
54575;SDS011;40472;53.486;14.542;2023-05-07T13:26:58;1.25;;;0.80;;
54575;SDS011;40472;53.486;14.542;2023-05-07T13:29:24;2.05;;;0.70;;
54575;SDS011;40472;53.486;14.542;2023-05-07T13:31:53;1.05;;;0.75;;
54575;SDS011;40472;53.486;14.542;2023-05-07T13:34:20;1.10;;;0.55;;
54575;SDS011;40472;53.486;14.542;2023-05-07T13:36:46;2.85;;;0.35;;
54575;SDS011;40472;53.486;14.542;2023-05-07T13:39:11;2.40;;;0.52;;
54575;SDS011;40472;53.486;14.542;2023-05-07T13:41:37;2.15;;;0.90;;
54575;SDS011;40472;53.486;14.542;2023-05-07T13:44:03;1.13;;;0.82;;
54575;SDS011;40472;53.486;14.542;2023-05-07T13:46:29;1.20;;;0.57;;
54575;SDS011;40472;53.486;14.542;2023-05-07T13:48:55;1.55;;;0.70;;
54575;SDS011;40472;53.486;14.542;2023-05-07T13:51:21;0.80;;;0.57;;
54575;SDS011;40472;53.486;14.542;2023-05-07T13:53:47;1.55;;;1.10;;
54575;SDS011;40472;53.486;14.542;2023-05-07T13:56:13;1.92;;;1.10;;
54575;SDS011;40472;53.486;14.542;2023-05-07T13:58:39;1.50;;;1.02;;
54575;SDS011;40472;53.486;14.542;2023-05-07T14:01:06;1.48;;;0.93;;
54575;SDS011;40472;53.486;14.542;2023-05-07T14:03:34;3.03;;;1.35;;
54575;SDS011;40472;53.486;14.542;2023-05-07T14:06:02;1.85;;;1.00;;
54575;SDS011;40472;53.486;14.542;2023-05-07T14:08:28;2.20;;;0.95;;
54575;SDS011;40472;53.486;14.542;2023-05-07T14:10:54;0.73;;;0.47;;
54575;SDS011;40472;53.486;14.542;2023-05-07T14:13:20;1.45;;;1.00;;
54575;SDS011;40472;53.486;14.542;2023-05-07T14:15:46;1.90;;;0.82;;
54575;SDS011;40472;53.486;14.542;2023-05-07T14:18:14;1.38;;;0.80;;
54575;SDS011;40472;53.486;14.542;2023-05-07T14:20:42;1.05;;;0.68;;
54575;SDS011;40472;53.486;14.542;2023-05-07T14:23:10;1.23;;;0.55;;
54575;SDS011;40472;53.486;14.542;2023-05-07T14:25:36;1.23;;;0.70;;
54575;SDS011;40472;53.486;14.542;2023-05-07T14:28:02;1.05;;;0.75;;
54575;SDS011;40472;53.486;14.542;2023-05-07T14:30:31;4.50;;;0.93;;
54575;SDS011;40472;53.486;14.542;2023-05-07T14:32:56;1.40;;;0.90;;
54575;SDS011;40472;53.486;14.542;2023-05-07T14:35:22;2.65;;;1.10;;
54575;SDS011;40472;53.486;14.542;2023-05-07T14:37:48;2.15;;;1.13;;
54575;SDS011;40472;53.486;14.542;2023-05-07T14:40:14;1.58;;;0.90;;
54575;SDS011;40472;53.486;14.542;2023-05-07T14:42:40;6.85;;;1.15;;
54575;SDS011;40472;53.486;14.542;2023-05-07T14:45:06;1.98;;;0.85;;
54575;SDS011;40472;53.486;14.542;2023-05-07T14:47:32;1.17;;;0.82;;
54575;SDS011;40472;53.486;14.542;2023-05-07T14:50:00;0.90;;;0.45;;
54575;SDS011;40472;53.486;14.542;2023-05-07T14:52:26;1.35;;;0.90;;
54575;SDS011;40472;53.486;14.542;2023-05-07T14:54:52;2.28;;;1.20;;